KE6FRA-9>GPSMV,WIDE1-1,WIDE2-1,qAR,KE6AFE-2:$GPGGA,000000,0000.0000,S,00000.0000,W,0,-1,,,M,,M,,*4E
KE6FRA-9>GPSMV,qAO,K6BJ-3:$GPRMC,170659,A,3659.3400,N,12158.9636,W,000.0,218.9,071099,015.2,E*61
KE6FRA-9>GPSMV,WIDE1-1,qAO,K6BJ-3:$GPGGA,170705,3659.3393,N,12158.9634,W,1,04,3.2,75.2,M,-29.0,M,,*43
KE6FRA-9>GPSMV,WIDE1-1,WIDE2-1,qAO,K6BJ-3:$GPGGA,170740,3659.3388,N,12158.9488,W,1,04,4.1,69.5,M,-29.0,M,,*43
KE6FRA-9>GPSMV,qAO,K6BJ-3:$GPRMC,170901,A,3659.3442,N,12158.9644,W,000.0,127.7,071099,015.2,E*61
KE6FRA-9>GPSMV,WIDE1-1,WIDE2-1,qAO,K6BJ-3:$GPGGA,171010,3659.3383,N,12158.9713,W,1,07,1.1,43.2,M,-29.0,M,,*43
KE6FRA-9>GPSMV,qAO,K6BJ-3:$GPRMC,171103,A,3659.3389,N,12158.9688,W,000.0,127.7,071099,015.2,E*6A
KE6FRA-9>GPSMV,WIDE1-1,WIDE2-1,qAO,K6BJ-3:$GPGGA,171240,3659.3419,N,12158.9671,W,1,07,1.2,25.0,M,-29.0,M,,*44
KE6FRA-9>GPSMV,qAO,K6BJ-3:$GPRMC,171608,A,3659.3507,N,12158.9700,W,000.0,127.7,071099,015.2,E*67
KE6FRA-9>GPSMV,qAO,K6BJ-3:$GPRMC,171709,A,3659.3451,N,12158.9664,W,000.0,127.7,071099,015.2,E*66
KE6FRA-9>GPSMV,WIDE1-1,WIDE2-1,qAO,K6BJ-3:$GPGGA,172010,3659.3399,N,12158.9684,W,1,07,1.4,41.0,M,-29.0,M,,*41
KE6FRA-9>GPSMV,qAO,K6BJ-3:$GPRMC,172113,A,3659.3413,N,12158.9695,W,000.0,127.7,071099,015.2,E*60
KE6FRA-9>GPSMV,qAO,K6BJ-3:$GPRMC,000001,V,3900.0000,N,09500.0000,W,000.0,000.0,010105,003.8,E*7A
KE6FRA-9>GPSMV,WIDE1-1,WIDE2-1,qAO,K6BJ-3:$GPGGA,180510,3658.8997,N,12200.8375,W,1,05,2.7,27.6,M,-29.0,M,,*47
KE6FRA-9>GPSMV,qAO,K6BJ-3:$GPRMC,180557,A,3658.9303,N,12200.9114,W,004.0,271.8,071099,015.2,E*6F
KE6FRA-9>GPSMV,qAR,KE6AFE-2:$GPRMC,181102,A,3658.9306,N,12200.9137,W,000.0,276.5,071099,015.2,E*60
KE6FRA-9>GPSMV,WIDE1-1,WIDE2-1,qAR,KE6AFE-2:$GPGGA,181239,3658.9316,N,12200.9134,W,1,08,1.2,30.0,M,-29.0,M,,*45
KE6FRA-9>GPSMV,qAR,KE6AFE-2:$GPRMC,181405,A,3658.9312,N,12200.9130,W,000.0,276.5,071099,015.2,E*60
KE6FRA-9>GPSMV,qAR,KE6AFE-2:$GPRMC,181607,A,3658.9306,N,12200.9111,W,000.0,276.5,071099,015.2,E*66
KE6FRA-9>GPSMV,qAR,KE6AFE-2:$GPRMC,181708,A,3658.9289,N,12200.9120,W,000.0,276.5,071099,015.2,E*6C
KE6FRA-9>GPSMV,WIDE1-1,WIDE2-1,qAR,KE6AFE-2:$GPGGA,182010,3658.9296,N,12200.9128,W,1,09,1.1,25.4,M,-29.0,M,,*49
KE6FRA-9>GPSMV,qAR,KE6AFE-2:$GPRMC,182011,A,3658.9296,N,12200.9128,W,000.0,276.5,071099,015.2,E*66